Time;durP1;ratioP1;P1;durP2;ratioP2;P2;SDS_P1;SDS_P2;PMS_P1;PMS_P2;Temp;Humidity;BMP_temperature;BMP_pressure;BME280_temperature;BME280_humidity;BME280_pressure;Samples;Min_cycle;Max_cycle;Signal;HPM_P1;HPM_P2
2023/07/13 00:01:49;;;;;;;1.00;1.00;;;15.60;99.90;;;;;;4811919;29;20500;-89
2023/07/13 00:04:19;;;;;;;1.10;1.10;;;15.60;99.90;;;;;;4813793;29;20046;-89
2023/07/13 00:06:46;;;;;;;1.10;1.10;;;15.50;99.90;;;;;;4815694;29;20046;-88
2023/07/13 00:09:17;;;;;;;1.08;1.08;;;15.60;99.90;;;;;;4800403;29;20493;-88
2023/07/13 00:11:43;;;;;;;1.10;1.10;;;15.60;99.90;;;;;;4826770;29;20049;-91
2023/07/13 00:14:10;;;;;;;4.03;3.65;;;15.60;99.90;;;;;;4803312;29;20146;-91
2023/07/13 00:16:42;;;;;;;1.10;1.10;;;15.70;99.90;;;;;;4828800;29;20046;-94
2023/07/13 00:19:08;;;;;;;1.10;1.10;;;15.60;99.90;;;;;;4819660;29;20046;-90
2023/07/13 00:21:38;;;;;;;1.10;1.10;;;15.60;99.90;;;;;;4820154;29;20544;-93
2023/07/13 00:24:15;;;;;;;1.17;1.17;;;15.60;99.90;;;;;;4814433;29;20057;-90
2023/07/13 00:26:47;;;;;;;1.10;1.10;;;15.60;99.90;;;;;;4802806;29;20046;-95
2023/07/13 00:29:21;;;;;;;1.10;1.10;;;15.70;99.90;;;;;;4829361;29;20042;-93
2023/07/13 00:31:50;;;;;;;1.20;1.20;;;15.60;99.90;;;;;;4816833;29;20136;-95
2023/07/13 00:34:19;;;;;;;1.10;1.10;;;15.60;99.90;;;;;;4822295;29;20166;-94
2023/07/13 00:36:45;;;;;;;1.10;1.10;;;15.60;99.90;;;;;;4795007;29;20078;-89
2023/07/13 00:39:10;;;;;;;1.20;1.20;;;15.70;99.90;;;;;;4803213;29;20090;-87
2023/07/13 00:41:36;;;;;;;1.20;1.20;;;15.60;99.90;;;;;;4818894;29;20061;-92
2023/07/13 00:44:09;;;;;;;1.30;1.30;;;15.50;99.90;;;;;;4816440;29;20083;-93
2023/07/13 00:46:34;;;;;;;1.20;1.20;;;15.60;99.90;;;;;;4810413;29;20078;-89
2023/07/13 00:49:20;;;;;;;1.20;1.20;;;15.50;99.90;;;;;;4831219;29;20687;-94
2023/07/13 00:51:51;;;;;;;1.20;1.20;;;15.50;99.90;;;;;;4813838;29;20099;-91
2023/07/13 00:54:44;;;;;;;1.23;1.23;;;15.50;99.90;;;;;;4814726;29;20058;-93
2023/07/13 00:57:15;;;;;;;1.40;1.35;;;15.40;99.90;;;;;;4815206;29;20109;-92
2023/07/13 00:59:55;;;;;;;1.30;1.30;;;15.50;99.90;;;;;;4807678;29;20413;-93
2023/07/13 01:02:29;;;;;;;1.40;1.40;;;15.50;99.90;;;;;;4817179;29;20058;-95
2023/07/13 01:04:58;;;;;;;1.50;1.40;;;15.60;99.90;;;;;;4829301;29;20474;-91
2023/07/13 01:07:27;;;;;;;1.50;1.40;;;15.50;99.90;;;;;;4819541;29;20060;-94
2023/07/13 01:09:53;;;;;;;1.55;1.45;;;15.60;99.90;;;;;;4817265;29;20050;-91
2023/07/13 01:12:19;;;;;;;1.70;1.60;;;15.70;99.90;;;;;;4835879;29;20472;-92
2023/07/13 01:14:45;;;;;;;1.70;1.60;;;15.70;99.90;;;;;;4823580;29;20060;-92
2023/07/13 01:17:25;;;;;;;;;;;;;;;;;;;;;
2023/07/13 01:19:51;;;;;;;1.63;1.52;;;15.80;99.90;;;;;;4820077;29;20137;-90
2023/07/13 01:22:25;;;;;;;1.80;1.70;;;15.90;99.90;;;;;;4820063;29;20142;-94
2023/07/13 01:24:53;;;;;;;1.60;1.50;;;15.80;99.90;;;;;;4806185;29;20041;-88
2023/07/13 01:27:24;;;;;;;1.70;1.60;;;15.90;99.90;;;;;;4809068;29;20081;-92
2023/07/13 01:30:02;;;;;;;1.60;1.50;;;15.90;99.90;;;;;;4821047;29;20056;-85
2023/07/13 01:32:42;;;;;;;1.80;1.70;;;16.00;99.90;;;;;;4817775;29;20045;-90
2023/07/13 01:35:08;;;;;;;1.70;1.60;;;16.00;99.90;;;;;;4803584;29;20058;-91
2023/07/13 01:37:35;;;;;;;1.70;1.60;;;16.00;99.90;;;;;;4829099;29;20582;-88
2023/07/13 01:40:09;;;;;;;1.48;1.40;;;16.10;99.90;;;;;;4822299;29;20068;-89
2023/07/13 01:42:41;;;;;;;1.58;1.48;;;16.10;99.90;;;;;;4825386;29;20058;-96
2023/07/13 01:45:12;;;;;;;1.70;1.60;;;16.10;99.90;;;;;;4824110;29;20046;-93
2023/07/13 01:47:47;;;;;;;1.65;1.55;;;16.20;99.90;;;;;;4814815;29;20049;-94
2023/07/13 01:50:12;;;;;;;1.90;1.80;;;16.10;99.90;;;;;;4817193;29;20054;-92
2023/07/13 01:52:39;;;;;;;2.15;2.05;;;16.10;99.90;;;;;;4824405;29;20053;-95
2023/07/13 01:55:06;;;;;;;2.40;2.30;;;16.10;99.90;;;;;;4814491;29;20278;-89
2023/07/13 01:57:31;;;;;;;2.20;2.10;;;16.10;99.90;;;;;;4823574;29;20077;-91
2023/07/13 01:59:57;;;;;;;2.00;1.90;;;16.10;99.90;;;;;;4816111;29;20509;-91
2023/07/13 02:02:23;;;;;;;1.90;1.80;;;16.10;99.90;;;;;;4812764;29;20050;-91
2023/07/13 02:04:49;;;;;;;2.00;1.90;;;16.10;99.90;;;;;;4818749;29;20078;-89
2023/07/13 02:07:18;;;;;;;2.30;2.20;;;16.20;99.90;;;;;;4822069;29;20077;-96
2023/07/13 02:09:43;;;;;;;2.30;2.20;;;16.10;99.90;;;;;;4830861;29;20058;-92
2023/07/13 02:12:12;;;;;;;2.40;2.30;;;16.10;99.90;;;;;;4804789;29;20048;-92
2023/07/13 02:14:38;;;;;;;2.42;2.33;;;16.10;99.90;;;;;;4815079;29;20129;-90
2023/07/13 02:17:09;;;;;;;2.28;2.17;;;16.10;99.90;;;;;;4815718;29;20162;-93
2023/07/13 02:19:35;;;;;;;2.85;2.65;;;16.10;99.90;;;;;;4816734;29;20054;-89
2023/07/13 02:22:00;;;;;;;2.35;2.25;;;16.00;99.90;;;;;;4798794;29;20493;-89
2023/07/13 02:24:27;;;;;;;2.10;2.00;;;16.10;99.90;;;;;;4814788;29;20046;-90
2023/07/13 02:26:52;;;;;;;2.55;2.45;;;16.00;99.90;;;;;;4815056;29;20086;-88
2023/07/13 02:29:18;;;;;;;2.95;2.75;;;16.00;99.90;;;;;;4813809;29;20476;-91
2023/07/13 02:31:50;;;;;;;2.05;1.95;;;16.00;99.90;;;;;;4816511;29;20045;-93
2023/07/13 02:34:15;;;;;;;2.63;2.50;;;16.00;99.90;;;;;;4810707;29;20091;-89
2023/07/13 02:36:41;;;;;;;2.33;2.22;;;16.00;99.90;;;;;;4836550;29;20053;-92
2023/07/13 02:39:10;;;;;;;2.50;2.40;;;16.00;99.90;;;;;;4811280;29;20054;-93
2023/07/13 02:41:36;;;;;;;2.20;2.10;;;16.00;99.90;;;;;;4835914;29;20164;-91
2023/07/13 02:44:03;;;;;;;2.40;2.30;;;16.00;99.90;;;;;;4816848;29;20084;-88
2023/07/13 02:46:30;;;;;;;2.20;2.10;;;16.00;99.90;;;;;;4821075;29;20058;-91
2023/07/13 02:48:56;;;;;;;2.28;2.17;;;16.10;99.90;;;;;;4803761;29;20125;-92
2023/07/13 02:51:25;;;;;;;2.33;2.22;;;16.10;99.90;;;;;;4821133;29;20129;-94
2023/07/13 02:53:51;;;;;;;2.90;2.70;;;16.00;99.90;;;;;;4818926;29;20053;-91
2023/07/13 02:56:21;;;;;;;2.90;2.70;;;16.00;99.90;;;;;;4803022;29;20052;-88
2023/07/13 02:58:47;;;;;;;2.10;2.00;;;16.00;99.90;;;;;;4821541;29;20038;-92
2023/07/13 03:01:18;;;;;;;1.90;1.80;;;16.00;99.90;;;;;;4813396;29;20686;-91
2023/07/13 03:03:47;;;;;;;1.98;1.88;;;16.00;99.90;;;;;;4807652;29;20457;-90
2023/07/13 03:06:14;;;;;;;1.83;1.73;;;16.00;99.90;;;;;;4816648;29;20039;-88
2023/07/13 03:08:41;;;;;;;1.98;1.88;;;16.00;99.90;;;;;;4823460;29;20053;-90
2023/07/13 03:11:10;;;;;;;1.83;1.73;;;16.00;99.90;;;;;;4812736;29;20472;-90
2023/07/13 03:13:37;;;;;;;2.08;1.98;;;16.00;99.90;;;;;;4801645;29;20050;-92
2023/07/13 03:16:03;;;;;;;1.85;1.75;;;16.00;99.90;;;;;;4828886;29;20061;-92
2023/07/13 03:18:29;;;;;;;1.95;1.85;;;15.90;99.90;;;;;;4815161;29;20054;-91
2023/07/13 03:20:54;;;;;;;2.03;1.92;;;16.00;99.90;;;;;;4828437;29;20062;-90
2023/07/13 03:23:22;;;;;;;2.22;2.13;;;16.00;99.90;;;;;;4811995;29;20054;-88
2023/07/13 03:26:00;;;;;;;2.17;2.08;;;15.90;99.90;;;;;;4803487;29;20117;-92
2023/07/13 03:28:26;;;;;;;2.38;2.28;;;15.90;99.90;;;;;;4826115;29;20108;-92
2023/07/13 03:31:04;;;;;;;2.42;2.33;;;15.90;99.90;;;;;;4812311;29;20481;-92
2023/07/13 03:33:30;;;;;;;2.45;2.35;;;15.90;99.90;;;;;;4819677;29;20065;-91
2023/07/13 03:35:56;;;;;;;2.70;2.55;;;15.90;99.90;;;;;;4821373;29;20137;-88
2023/07/13 03:38:22;;;;;;;2.85;2.65;;;15.80;99.90;;;;;;4822076;29;20125;-92
2023/07/13 03:40:53;;;;;;;2.97;2.78;;;15.80;99.90;;;;;;4812794;29;20113;-91
2023/07/13 03:43:22;;;;;;;3.13;2.92;;;15.80;99.90;;;;;;4823115;29;20048;-92
2023/07/13 03:45:50;;;;;;;3.22;3.03;;;15.80;99.90;;;;;;4811318;29;20078;-90
2023/07/13 03:48:16;;;;;;;3.30;3.10;;;15.70;99.90;;;;;;4815835;29;20081;-89
2023/07/13 03:50:49;;;;;;;3.40;3.20;;;15.70;99.90;;;;;;4816339;29;20073;-91
2023/07/13 03:53:15;;;;;;;3.78;3.58;;;15.70;99.90;;;;;;4829865;29;20097;-91
2023/07/13 03:55:41;;;;;;;3.72;3.53;;;15.70;99.90;;;;;;4817167;29;20047;-87
2023/07/13 03:58:51;;;;;;;3.97;3.72;;;15.70;99.90;;;;;;4810480;29;20137;-93
2023/07/13 04:01:35;;;;;;;;;;;;;;;;;;;;;
2023/07/13 04:04:09;;;;;;;4.03;3.78;;;15.70;99.90;;;;;;4750678;30;20127;-94
2023/07/13 04:07:01;;;;;;;3.90;3.70;;;15.70;99.90;;;;;;4758383;30;20059;-95
2023/07/13 04:09:30;;;;;;;3.90;3.70;;;15.70;99.90;;;;;;4718040;30;20070;-90
2023/07/13 04:11:56;;;;;;;4.13;3.83;;;15.70;99.90;;;;;;4769915;29;20085;-90
2023/07/13 04:14:25;;;;;;;4.20;3.90;;;15.70;99.90;;;;;;4809633;29;20505;-89
2023/07/13 04:16:51;;;;;;;4.32;4.03;;;15.70;99.90;;;;;;4827207;29;20061;-93
2023/07/13 04:19:26;;;;;;;4.20;3.90;;;15.70;99.90;;;;;;4820206;29;20075;-95
2023/07/13 04:22:07;;;;;;;4.28;3.97;;;15.70;99.90;;;;;;4820095;29;20537;-96
2023/07/13 04:24:36;;;;;;;4.22;3.92;;;15.60;99.90;;;;;;4795711;29;20122;-93
2023/07/13 04:27:02;;;;;;;4.20;3.90;;;15.50;99.90;;;;;;4822083;29;20050;-89
2023/07/13 04:29:40;;;;;;;4.13;3.85;;;15.60;99.90;;;;;;4815926;29;20104;-86
2023/07/13 04:32:09;;;;;;;4.18;3.88;;;15.60;99.90;;;;;;4811172;29;20074;-93
2023/07/13 04:34:41;;;;;;;4.10;3.83;;;15.60;99.90;;;;;;4803021;29;20062;-95
2023/07/13 04:37:07;;;;;;;4.05;3.80;;;15.60;99.90;;;;;;4809456;29;20096;-90
2023/07/13 04:39:38;;;;;;;4.22;3.92;;;15.50;99.90;;;;;;4808845;29;20046;-96
2023/07/13 04:42:04;;;;;;;4.00;3.75;;;15.60;99.90;;;;;;4810530;29;20057;-89
2023/07/13 04:44:49;;;;;;;4.05;3.80;;;15.70;99.90;;;;;;4812108;29;20050;-94
2023/07/13 04:47:21;;;;;;;3.75;3.55;;;15.70;99.90;;;;;;4835290;29;20049;-92
2023/07/13 04:49:46;;;;;;;3.75;3.55;;;15.80;99.90;;;;;;4823429;29;20080;-90
2023/07/13 04:52:23;;;;;;;3.55;3.35;;;15.90;99.90;;;;;;4818416;29;20483;-92
2023/07/13 04:54:55;;;;;;;3.78;3.58;;;16.20;99.90;;;;;;4836296;29;20061;-94
2023/07/13 04:57:21;;;;;;;3.65;3.45;;;16.20;99.90;;;;;;4819869;29;21826;-88
2023/07/13 04:59:47;;;;;;;4.55;4.25;;;17.70;99.90;;;;;;4837022;29;20062;-95
2023/07/13 05:02:12;;;;;;;3.63;3.42;;;17.30;99.90;;;;;;4801345;29;20140;-88
2023/07/13 05:04:41;;;;;;;3.70;3.50;;;18.60;99.90;;;;;;4823877;29;20050;-94
2023/07/13 05:07:10;;;;;;;3.63;3.42;;;18.80;99.90;;;;;;4830683;29;20139;-94
2023/07/13 05:09:42;;;;;;;4.32;4.03;;;18.60;99.90;;;;;;4821032;29;20042;-92
2023/07/13 05:12:11;;;;;;;4.47;4.18;;;18.30;99.90;;;;;;4803443;29;20057;-90
2023/07/13 05:14:37;;;;;;;3.83;3.63;;;18.40;99.90;;;;;;4806971;29;20053;-92
2023/07/13 05:17:09;;;;;;;4.55;4.25;;;20.00;99.90;;;;;;4809533;29;20129;-94
2023/07/13 05:19:38;;;;;;;4.18;3.88;;;19.10;99.90;;;;;;4831894;29;20137;-93
2023/07/13 05:22:04;;;;;;;3.40;3.20;;;20.60;99.90;;;;;;4818798;29;20046;-87
2023/07/13 05:24:38;;;;;;;2.97;2.78;;;21.00;99.90;;;;;;4819851;29;20119;-95
2023/07/13 05:27:07;;;;;;;3.10;2.90;;;21.40;99.90;;;;;;4811494;29;20663;-94
2023/07/13 05:29:39;;;;;;;2.47;2.38;;;21.80;99.90;;;;;;4810934;29;20411;-94
2023/07/13 05:32:11;;;;;;;2.10;2.00;;;21.80;99.90;;;;;;4819151;29;20126;-94
2023/07/13 05:34:39;;;;;;;2.30;2.20;;;22.40;99.90;;;;;;4835198;29;20054;-93
2023/07/13 05:37:08;;;;;;;2.25;2.15;;;22.00;99.90;;;;;;4820989;29;20058;-93
2023/07/13 05:39:36;;;;;;;2.33;2.22;;;22.40;99.90;;;;;;4824250;29;20136;-89
2023/07/13 05:42:03;;;;;;;2.33;2.22;;;22.50;99.90;;;;;;4816810;29;20125;-88
2023/07/13 05:44:30;;;;;;;2.58;2.47;;;22.50;99.90;;;;;;4817743;29;20050;-89
2023/07/13 05:46:58;;;;;;;2.80;2.60;;;22.80;99.90;;;;;;4832274;29;20066;-93
2023/07/13 05:49:30;;;;;;;2.90;2.70;;;22.90;99.90;;;;;;4821615;29;20052;-95
2023/07/13 05:51:59;;;;;;;2.80;2.60;;;23.30;99.90;;;;;;4822533;29;20042;-94
2023/07/13 05:54:41;;;;;;;2.85;2.65;;;21.50;99.90;;;;;;4807983;29;20053;-95
2023/07/13 05:57:10;;;;;;;2.80;2.60;;;20.90;99.90;;;;;;4822766;29;20047;-93
2023/07/13 05:59:35;;;;;;;2.80;2.60;;;20.50;99.90;;;;;;4822378;29;20054;-90
2023/07/13 06:02:01;;;;;;;2.58;2.47;;;20.10;99.90;;;;;;4822698;29;20382;-90
2023/07/13 06:04:27;;;;;;;3.03;2.83;;;20.10;99.90;;;;;;4800513;29;20077;-91
2023/07/13 06:07:06;;;;;;;2.45;2.35;;;20.20;99.90;;;;;;4815876;29;20053;-95
2023/07/13 06:09:35;;;;;;;2.42;2.33;;;20.00;99.90;;;;;;4805118;29;20046;-94
2023/07/13 06:12:00;;;;;;;2.42;2.33;;;20.10;99.90;;;;;;4819552;29;20053;-89
2023/07/13 06:14:35;;;;;;;2.38;2.28;;;20.30;99.90;;;;;;4828709;29;20418;-93
2023/07/13 06:17:19;;;;;;;2.35;2.25;;;20.30;99.90;;;;;;4820577;29;20054;-95
2023/07/13 06:19:45;;;;;;;2.25;2.15;;;20.40;99.90;;;;;;4823625;29;20580;-93
2023/07/13 06:22:14;;;;;;;2.20;2.10;;;20.30;99.90;;;;;;4828375;29;20137;-91
2023/07/13 06:24:40;;;;;;;2.40;2.30;;;20.10;99.90;;;;;;4804269;29;20468;-88
2023/07/13 06:27:06;;;;;;;2.10;2.00;;;20.40;99.90;;;;;;4828494;29;20054;-87
2023/07/13 06:29:31;;;;;;;2.20;2.10;;;20.40;99.90;;;;;;4802058;29;20054;-86
2023/07/13 06:32:06;;;;;;;2.00;1.90;;;20.50;99.90;;;;;;4819834;29;20137;-92
2023/07/13 06:34:32;;;;;;;2.08;1.98;;;20.60;99.90;;;;;;4824879;29;20477;-95
2023/07/13 06:36:57;;;;;;;2.08;1.98;;;20.50;99.90;;;;;;4822867;29;20106;-92
2023/07/13 06:39:23;;;;;;;2.20;2.10;;;20.80;99.90;;;;;;4823213;29;20055;-87
2023/07/13 06:41:49;;;;;;;1.88;1.77;;;20.80;99.90;;;;;;4816643;29;20133;-88
2023/07/13 06:44:14;;;;;;;2.08;1.98;;;20.60;99.90;;;;;;4813848;29;20402;-87
2023/07/13 06:46:40;;;;;;;2.03;1.92;;;21.00;99.90;;;;;;4816001;29;20451;-93
2023/07/13 06:49:08;;;;;;;1.88;1.77;;;20.90;99.90;;;;;;4826113;29;20053;-92
2023/07/13 06:52:06;;;;;;;1.80;1.70;;;21.00;99.90;;;;;;4827097;29;20497;-92
2023/07/13 06:54:35;;;;;;;1.80;1.70;;;20.80;99.90;;;;;;4813809;29;20061;-92
2023/07/13 06:57:00;;;;;;;1.70;1.60;;;21.00;99.90;;;;;;4833067;29;20046;-91
2023/07/13 06:59:44;;;;;;;1.73;1.63;;;20.90;99.90;;;;;;4807269;29;20062;-95
2023/07/13 07:02:13;;;;;;;1.73;1.63;;;20.60;99.90;;;;;;4820576;29;20058;-96
2023/07/13 07:04:39;;;;;;;1.73;1.63;;;20.30;99.90;;;;;;4819070;29;20052;-89
2023/07/13 07:07:05;;;;;;;1.80;1.70;;;20.20;99.90;;;;;;4809972;29;20057;-96
2023/07/13 07:09:31;;;;;;;1.73;1.63;;;20.30;99.90;;;;;;4818432;29;20058;-89
2023/07/13 07:11:57;;;;;;;1.77;1.67;;;20.30;99.90;;;;;;4831956;29;20089;-92
2023/07/13 07:14:23;;;;;;;2.00;1.90;;;20.50;99.90;;;;;;4824040;29;20083;-92
2023/07/13 07:16:59;;;;;;;1.92;1.83;;;21.20;99.90;;;;;;4818446;29;20385;-95
2023/07/13 07:19:26;;;;;;;2.05;1.95;;;21.20;99.90;;;;;;4824083;29;20061;-89
2023/07/13 07:22:00;;;;;;;2.03;1.92;;;21.00;99.90;;;;;;4815177;29;20140;-93
2023/07/13 07:24:26;;;;;;;2.13;2.03;;;21.30;99.90;;;;;;4798570;29;20062;-93
2023/07/13 07:26:52;;;;;;;2.05;1.95;;;21.60;99.90;;;;;;4826182;29;20050;-88
2023/07/13 07:29:26;;;;;;;2.08;1.98;;;21.50;99.90;;;;;;4798721;29;20213;-93
2023/07/13 07:31:52;;;;;;;;;;;21.10;99.90;;;;;;4819394;29;20065;-89
2023/07/13 07:34:17;;;;;;;1.60;1.50;;;21.00;99.90;;;;;;4829674;29;20299;-95
2023/07/13 07:36:43;;;;;;;1.80;1.70;;;20.70;99.90;;;;;;4818873;29;20122;-91
2023/07/13 07:39:09;;;;;;;1.88;1.77;;;20.60;99.90;;;;;;4816933;29;20057;-90
2023/07/13 07:41:38;;;;;;;2.00;1.90;;;20.60;99.90;;;;;;4822325;29;20402;-96
2023/07/13 07:44:04;;;;;;;1.83;1.73;;;20.50;99.90;;;;;;4813823;29;20049;-92
2023/07/13 07:46:30;;;;;;;2.00;1.90;;;20.50;99.90;;;;;;4798105;29;20133;-89
2023/07/13 07:48:59;;;;;;;1.70;1.60;;;20.30;99.90;;;;;;4815786;29;20195;-95
2023/07/13 07:51:31;;;;;;;1.75;1.65;;;20.20;99.90;;;;;;4813927;29;20050;-93
2023/07/13 07:54:06;;;;;;;1.80;1.70;;;20.20;99.90;;;;;;4830931;29;20547;-96
2023/07/13 07:56:37;;;;;;;1.75;1.65;;;20.20;99.90;;;;;;4833805;29;20128;-90
2023/07/13 07:59:03;;;;;;;1.70;1.60;;;20.20;99.90;;;;;;4821830;29;20493;-87
2023/07/13 08:01:29;;;;;;;1.75;1.65;;;20.30;99.90;;;;;;4815974;29;20056;-89
2023/07/13 08:03:55;;;;;;;1.98;1.88;;;20.40;99.90;;;;;;4819124;29;20049;-96
2023/07/13 08:06:21;;;;;;;2.00;1.90;;;20.60;99.90;;;;;;4802600;29;20054;-91
2023/07/13 08:09:00;;;;;;;2.03;1.92;;;21.00;99.90;;;;;;4804176;29;20524;-93
2023/07/13 08:11:25;;;;;;;1.80;1.70;;;20.90;99.90;;;;;;4816567;29;20051;-92
2023/07/13 08:13:51;;;;;;;1.92;1.83;;;20.80;99.90;;;;;;4803066;29;20391;-94
2023/07/13 08:16:17;;;;;;;1.80;1.70;;;20.80;99.90;;;;;;4823370;29;20049;-88
2023/07/13 08:18:46;;;;;;;1.90;1.80;;;20.90;99.90;;;;;;4821011;29;20046;-90
2023/07/13 08:21:11;;;;;;;1.95;1.85;;;20.90;99.90;;;;;;4840184;29;20115;-92
2023/07/13 08:23:38;;;;;;;2.05;1.95;;;20.90;99.90;;;;;;4814941;29;20053;-84
2023/07/13 08:26:15;;;;;;;1.83;1.73;;;20.80;99.90;;;;;;4821058;29;21004;-90
2023/07/13 08:28:43;;;;;;;1.90;1.80;;;20.80;99.90;;;;;;4821491;29;20046;-91
2023/07/13 08:31:10;;;;;;;1.80;1.70;;;21.20;99.90;;;;;;4816270;29;20056;-85
2023/07/13 08:33:36;;;;;;;2.10;2.00;;;21.20;99.90;;;;;;4822707;29;20403;-89
2023/07/13 08:36:05;;;;;;;2.30;2.20;;;21.30;99.90;;;;;;4815454;29;20133;-87
2023/07/13 08:38:31;;;;;;;2.10;2.00;;;22.00;99.90;;;;;;4819173;29;20394;-83
2023/07/13 08:40:57;;;;;;;2.20;2.10;;;21.70;99.90;;;;;;4814797;29;20118;-86
2023/07/13 08:43:31;;;;;;;2.10;2.00;;;21.50;99.90;;;;;;4816793;29;20042;-90
2023/07/13 08:46:30;;;;;;;1.95;1.85;;;21.40;99.90;;;;;;4816424;29;20402;-91
2023/07/13 08:49:13;;;;;;;2.00;1.90;;;21.20;99.90;;;;;;4819945;29;20391;-93
2023/07/13 08:51:46;;;;;;;2.00;1.90;;;21.50;99.90;;;;;;4810542;29;20046;-86
2023/07/13 08:54:26;;;;;;;2.00;1.90;;;22.40;99.90;;;;;;4831152;29;20501;-93
2023/07/13 08:56:53;;;;;;;1.80;1.70;;;22.20;99.90;;;;;;4823484;29;20050;-87
2023/07/13 08:59:25;;;;;;;1.70;1.60;;;22.20;99.90;;;;;;4814477;29;20054;-86
2023/07/13 09:02:21;;;;;;;1.70;1.60;;;21.70;99.90;;;;;;4815710;29;20049;-92
2023/07/13 09:04:56;;;;;;;1.50;1.40;;;21.70;99.90;;;;;;4817097;29;20073;-94
2023/07/13 09:07:52;;;;;;;1.30;1.30;;;21.80;99.90;;;;;;4811013;29;20826;-91
2023/07/13 09:10:29;;;;;;;1.50;1.40;;;22.20;99.90;;;;;;4825760;29;20423;-86
2023/07/13 09:13:28;;;;;;;1.50;1.40;;;22.20;99.90;;;;;;4819741;29;20123;-89
2023/07/13 09:16:03;;;;;;;1.20;1.20;;;22.20;99.90;;;;;;4819780;29;20065;-88
2023/07/13 09:18:54;;;;;;;1.30;1.30;;;22.90;99.90;;;;;;4815716;29;20603;-94
2023/07/13 09:21:31;;;;;;;1.42;1.35;;;23.00;99.90;;;;;;4823340;29;20382;-89
2023/07/13 09:24:17;;;;;;;1.00;1.00;;;22.60;99.90;;;;;;4827809;29;20049;-92
2023/07/13 09:26:43;;;;;;;1.00;1.00;;;22.40;99.90;;;;;;4822363;29;20046;-88
2023/07/13 09:29:29;;;;;;;0.90;0.90;;;22.30;99.90;;;;;;4813800;29;20064;-90
2023/07/13 09:32:00;;;;;;;0.98;0.98;;;21.60;99.90;;;;;;4811843;29;20053;-88
2023/07/13 09:34:26;;;;;;;0.90;0.90;;;21.20;99.90;;;;;;4821404;29;20057;-90
2023/07/13 09:36:51;;;;;;;0.90;0.90;;;21.00;99.90;;;;;;4810275;29;20105;-85
2023/07/13 09:39:28;;;;;;;0.90;0.90;;;19.80;99.90;;;;;;4833050;29;20195;-94
2023/07/13 09:42:03;;;;;;;0.88;0.88;;;18.50;99.90;;;;;;4815511;29;20417;-82
2023/07/13 09:44:38;;;;;;;0.80;0.80;;;17.50;99.90;;;;;;4833121;29;20054;-86
2023/07/13 09:47:20;;;;;;;0.98;0.98;;;16.90;99.90;;;;;;4809652;29;20057;-84
2023/07/13 09:49:47;;;;;;;1.05;1.05;;;16.80;99.90;;;;;;4806701;29;20115;-85
2023/07/13 09:52:15;;;;;;;1.08;1.08;;;16.60;99.90;;;;;;4796312;29;20079;-85
2023/07/13 09:54:45;;;;;;;1.17;1.17;;;16.60;99.90;;;;;;4819852;29;20092;-85
2023/07/13 09:57:25;;;;;;;1.50;1.40;;;16.70;99.90;;;;;;4816043;29;20050;-85
2023/07/13 09:59:53;;;;;;;1.85;1.75;;;16.70;99.90;;;;;;4812794;29;20050;-85
2023/07/13 10:02:33;;;;;;;2.03;1.92;;;16.80;99.90;;;;;;4813313;29;20080;-87
2023/07/13 10:05:00;;;;;;;2.05;1.95;;;17.10;99.90;;;;;;4810412;29;20535;-87
2023/07/13 10:07:27;;;;;;;2.30;2.20;;;17.30;99.90;;;;;;4809043;29;20080;-86
2023/07/13 10:10:00;;;;;;;2.45;2.35;;;17.70;99.90;;;;;;4817504;29;20065;-89
2023/07/13 10:12:27;;;;;;;2.50;2.40;;;17.90;99.90;;;;;;4811390;29;20050;-89
2023/07/13 10:14:59;;;;;;;2.70;2.55;;;18.20;99.90;;;;;;4829000;29;20527;-91
2023/07/13 10:17:30;;;;;;;2.60;2.47;;;18.30;99.90;;;;;;4808592;29;20061;-91
2023/07/13 10:20:04;;;;;;;2.55;2.42;;;18.40;99.90;;;;;;4810112;29;20195;-91
2023/07/13 10:22:56;;;;;;;2.55;2.45;;;18.10;99.90;;;;;;4807978;29;20718;-93
2023/07/13 10:25:30;;;;;;;2.40;2.30;;;18.50;99.90;;;;;;4833702;29;20498;-94
2023/07/13 10:28:34;;;;;;;2.28;2.17;;;19.00;99.90;;;;;;4824129;29;20081;-92
2023/07/13 10:31:47;;;;;;;2.50;2.40;;;19.40;99.90;;;;;;4807221;29;20058;-96
2023/07/13 10:34:15;;;;;;;2.15;2.05;;;20.30;99.90;;;;;;4804410;29;20087;-92
2023/07/13 10:36:44;;;;;;;2.15;2.05;;;20.50;99.90;;;;;;4804636;29;20049;-88
2023/07/13 10:39:22;;;;;;;1.98;1.88;;;21.00;99.90;;;;;;4815940;29;20054;-87
2023/07/13 10:42:01;;;;;;;1.80;1.70;;;21.40;99.90;;;;;;4804096;29;20045;-87
2023/07/13 10:44:30;;;;;;;1.67;1.58;;;21.30;99.90;;;;;;4820138;29;20054;-86
2023/07/13 10:47:06;;;;;;;1.63;1.52;;;21.50;99.90;;;;;;4822720;29;20054;-88
2023/07/13 10:49:33;;;;;;;1.60;1.50;;;21.50;99.90;;;;;;4835149;29;20057;-87
2023/07/13 10:51:59;;;;;;;1.40;1.40;;;21.10;99.90;;;;;;4805899;29;20516;-87
2023/07/13 10:54:32;;;;;;;1.50;1.40;;;20.70;99.90;;;;;;4806300;29;20050;-87
2023/07/13 10:57:20;;;;;;;1.40;1.35;;;20.90;99.90;;;;;;4825724;29;20054;-88
2023/07/13 11:00:08;;;;;;;1.30;1.30;;;20.80;99.90;;;;;;4830522;29;20512;-86
2023/07/13 11:02:34;;;;;;;1.30;1.30;;;20.70;99.90;;;;;;4805857;29;20763;-87
2023/07/13 11:05:25;;;;;;;1.38;1.38;;;20.60;99.90;;;;;;4809710;29;20050;-86
2023/07/13 11:08:16;;;;;;;1.20;1.20;;;20.50;99.90;;;;;;4817185;29;20050;-85
2023/07/13 11:10:54;;;;;;;1.20;1.20;;;20.20;99.90;;;;;;4808887;29;20049;-87
2023/07/13 11:13:38;;;;;;;1.20;1.20;;;20.10;99.90;;;;;;4795555;29;20129;-87
2023/07/13 11:16:20;;;;;;;1.10;1.10;;;19.80;99.90;;;;;;4811540;29;20050;-88
2023/07/13 11:18:52;;;;;;;1.10;1.10;;;19.80;99.90;;;;;;4814001;29;20060;-88
2023/07/13 11:21:30;;;;;;;1.10;1.10;;;19.60;99.90;;;;;;4816084;29;20053;-85
2023/07/13 11:24:16;;;;;;;1.20;1.20;;;19.40;99.90;;;;;;4807784;29;20505;-88
2023/07/13 11:26:50;;;;;;;1.10;1.10;;;19.20;99.90;;;;;;4832303;29;20543;-87
2023/07/13 11:29:16;;;;;;;;;;;19.10;99.90;;;;;;4807844;29;20114;-85
2023/07/13 11:31:44;;;;;;;1.42;1.40;;;19.00;99.90;;;;;;4821104;29;20368;-89
2023/07/13 11:34:38;;;;;;;1.60;1.50;;;18.90;99.90;;;;;;4816824;29;20186;-96
2023/07/13 11:37:04;;;;;;;1.80;1.70;;;18.80;99.90;;;;;;4808518;29;20057;-87
2023/07/13 11:39:36;;;;;;;1.90;1.80;;;18.70;99.90;;;;;;4814253;29;20046;-86
2023/07/13 11:42:11;;;;;;;1.90;1.80;;;18.70;99.90;;;;;;4810503;29;20517;-86
2023/07/13 11:44:53;;;;;;;2.00;1.90;;;18.70;99.90;;;;;;4824083;29;20137;-86
2023/07/13 11:47:22;;;;;;;2.03;1.92;;;18.90;99.90;;;;;;4812483;29;20054;-85
2023/07/13 11:49:56;;;;;;;2.10;2.00;;;19.00;99.90;;;;;;4806649;29;20050;-86
2023/07/13 11:52:32;;;;;;;;;;;19.30;99.90;;;;;;4827233;29;20054;-86
2023/07/13 11:55:01;;;;;;;2.53;2.42;;;19.90;99.90;;;;;;4825856;29;20322;-85
2023/07/13 11:57:33;;;;;;;2.33;2.22;;;20.40;99.90;;;;;;4819825;29;20073;-87
2023/07/13 12:00:06;;;;;;;2.20;2.10;;;20.70;99.90;;;;;;4815715;29;20102;-91
2023/07/13 12:02:35;;;;;;;2.05;1.95;;;21.30;99.90;;;;;;4818433;29;20811;-92
2023/07/13 12:05:03;;;;;;;2.03;1.92;;;21.20;99.90;;;;;;4811018;29;20085;-89
2023/07/13 12:07:32;;;;;;;2.20;2.10;;;21.10;99.90;;;;;;4815214;29;20061;-87
2023/07/13 12:10:14;;;;;;;2.00;1.90;;;20.70;99.90;;;;;;4814824;29;20066;-86
2023/07/13 12:13:07;;;;;;;2.13;2.03;;;20.80;99.90;;;;;;4812183;29;20046;-91
2023/07/13 12:15:40;;;;;;;2.40;2.30;;;21.50;99.90;;;;;;4828462;29;20046;-91
2023/07/13 12:18:15;;;;;;;2.50;2.40;;;22.00;99.90;;;;;;4810851;29;20532;-89
2023/07/13 12:20:41;;;;;;;2.38;2.28;;;22.40;99.90;;;;;;4817344;29;20489;-92
2023/07/13 12:23:26;;;;;;;2.30;2.20;;;22.60;99.90;;;;;;4814855;29;20049;-95
2023/07/13 12:25:55;;;;;;;2.17;2.08;;;22.30;99.90;;;;;;4824422;29;20361;-91
2023/07/13 12:28:22;;;;;;;2.60;2.50;;;22.10;99.90;;;;;;4816656;29;20050;-89
2023/07/13 12:30:51;;;;;;;2.63;2.53;;;22.80;99.90;;;;;;4827597;29;20053;-93
2023/07/13 12:33:17;;;;;;;2.33;2.22;;;22.90;99.90;;;;;;4816614;29;20049;-95
2023/07/13 12:35:48;;;;;;;2.08;1.98;;;22.60;99.90;;;;;;4833200;29;20078;-90
2023/07/13 12:38:16;;;;;;;1.63;1.52;;;22.60;99.90;;;;;;4822509;29;20429;-90
2023/07/13 12:40:42;;;;;;;1.33;1.33;;;22.30;99.90;;;;;;4818403;29;20049;-89
2023/07/13 12:43:23;;;;;;;1.27;1.27;;;22.10;99.90;;;;;;4813735;29;20050;-93
2023/07/13 12:46:05;;;;;;;1.25;1.25;;;22.00;99.90;;;;;;4813469;29;20057;-93
2023/07/13 12:48:39;;;;;;;1.20;1.20;;;22.00;99.90;;;;;;4821579;29;20053;-94
2023/07/13 12:51:11;;;;;;;1.13;1.13;;;22.70;99.90;;;;;;4819431;29;20120;-90
2023/07/13 12:53:41;;;;;;;1.10;1.10;;;23.00;99.90;;;;;;4811680;29;20090;-90
2023/07/13 12:56:24;;;;;;;1.20;1.20;;;22.80;99.90;;;;;;4823949;29;20061;-87
2023/07/13 12:58:56;;;;;;;1.30;1.30;;;23.40;99.90;;;;;;4832432;29;20058;-92
2023/07/13 13:01:26;;;;;;;1.20;1.20;;;23.60;99.90;;;;;;4836911;29;20117;-91
2023/07/13 13:04:11;;;;;;;0.90;0.90;;;23.80;99.90;;;;;;4815652;29;20557;-95
2023/07/13 13:06:37;;;;;;;0.90;0.90;;;23.60;99.90;;;;;;4832623;29;20066;-94
2023/07/13 13:09:03;;;;;;;0.90;0.90;;;23.90;99.90;;;;;;4818223;29;20077;-90
2023/07/13 13:11:32;;;;;;;0.88;0.88;;;23.90;99.90;;;;;;4826236;29;20061;-90
2023/07/13 13:13:58;;;;;;;0.38;0.38;;;24.10;99.90;;;;;;4804570;29;20057;-90